createdAt,value
2023-01-10T00:00:34.686Z,0.00
2023-01-10T00:01:34.598Z,0.00
2023-01-10T00:02:34.627Z,0.00
2023-01-10T00:03:34.615Z,0.00
2023-01-10T00:04:34.659Z,0.00
2023-01-10T00:05:34.611Z,0.00
2023-01-10T00:06:34.585Z,0.00
2023-01-10T00:07:34.568Z,0.00
2023-01-10T00:08:34.577Z,0.00
2023-01-10T00:09:34.562Z,0.00
2023-01-10T00:10:34.555Z,0.00
2023-01-10T00:11:34.555Z,0.00
2023-01-10T00:12:34.546Z,0.00
2023-01-10T00:13:34.544Z,0.00
2023-01-10T00:14:34.537Z,0.00
2023-01-10T00:15:34.619Z,0.00
2023-01-10T00:16:34.530Z,0.00
2023-01-10T00:17:34.517Z,0.00
2023-01-10T00:18:34.516Z,0.00
2023-01-10T00:19:34.514Z,0.00
2023-01-10T00:20:34.514Z,0.00
2023-01-10T00:21:34.523Z,0.00
2023-01-10T00:22:34.499Z,0.00
2023-01-10T00:23:34.495Z,0.00
2023-01-10T00:24:34.489Z,0.00
2023-01-10T00:25:34.482Z,0.00
2023-01-10T00:26:34.481Z,0.00
2023-01-10T00:27:34.474Z,0.00
2023-01-10T00:28:34.466Z,0.00
2023-01-10T00:29:34.480Z,0.00
2023-01-10T00:30:34.464Z,0.00
2023-01-10T00:31:34.482Z,0.00
2023-01-10T00:32:34.452Z,0.00
2023-01-10T00:33:34.445Z,0.00
2023-01-10T00:34:34.444Z,0.00
2023-01-10T00:35:34.434Z,0.00
2023-01-10T00:36:34.429Z,0.00
2023-01-10T00:37:34.583Z,0.00
2023-01-10T00:38:34.423Z,0.00
2023-01-10T00:39:34.416Z,0.00
2023-01-10T00:40:34.411Z,0.00
2023-01-10T00:41:34.403Z,0.00
2023-01-10T00:42:34.402Z,0.00
2023-01-10T00:43:34.403Z,0.00
2023-01-10T00:44:34.391Z,0.00
2023-01-10T00:45:34.390Z,0.00
2023-01-10T00:46:34.460Z,0.00
2023-01-10T00:47:34.393Z,0.00
2023-01-10T00:48:34.372Z,0.00
2023-01-10T00:49:34.371Z,0.00
2023-01-10T00:50:34.367Z,0.00
2023-01-10T00:51:34.357Z,0.00
2023-01-10T00:52:34.359Z,0.00
2023-01-10T00:53:34.375Z,0.00
2023-01-10T00:54:34.346Z,0.00
2023-01-10T00:55:34.340Z,0.00
2023-01-10T00:56:34.333Z,0.00
2023-01-10T00:57:34.326Z,0.00
2023-01-10T00:58:34.328Z,0.00
2023-01-10T00:59:34.334Z,0.00
2023-01-10T01:00:34.315Z,0.00
2023-01-10T01:01:34.417Z,0.00
2023-01-10T01:02:34.370Z,0.00
2023-01-10T01:03:34.303Z,0.00
2023-01-10T01:04:34.310Z,0.00
2023-01-10T01:05:34.290Z,0.00
2023-01-10T01:06:34.287Z,0.00
2023-01-10T01:07:34.283Z,0.00
2023-01-10T01:08:34.285Z,0.00
2023-01-10T01:09:34.285Z,0.00
2023-01-10T01:10:34.273Z,0.00
2023-01-10T01:11:34.261Z,0.00
2023-01-10T01:12:34.264Z,0.00
2023-01-10T01:13:34.249Z,0.00
2023-01-10T01:14:34.246Z,0.00
2023-01-10T01:15:34.269Z,0.00
2023-01-10T01:16:34.235Z,0.00
2023-01-10T01:17:34.232Z,0.00
2023-01-10T01:18:34.223Z,0.00
2023-01-10T01:19:34.221Z,0.00
2023-01-10T01:20:34.218Z,0.00
2023-01-10T01:21:34.218Z,0.00
2023-01-10T01:22:34.207Z,0.00
2023-01-10T01:23:34.204Z,0.00
2023-01-10T01:24:34.200Z,0.00
2023-01-10T01:25:34.211Z,0.00
2023-01-10T01:26:34.189Z,0.00
2023-01-10T01:27:34.180Z,0.00
2023-01-10T01:28:34.183Z,0.00
2023-01-10T01:29:43.053Z,0.00
2023-01-10T01:30:34.174Z,0.00
2023-01-10T01:31:34.179Z,0.00
2023-01-10T01:32:34.159Z,0.00
2023-01-10T01:33:34.153Z,0.00
2023-01-10T01:34:34.161Z,0.00
2023-01-10T01:35:34.145Z,0.00
2023-01-10T01:36:34.142Z,0.00
2023-01-10T01:37:34.130Z,0.00
2023-01-10T01:38:34.130Z,0.00
2023-01-10T01:39:34.120Z,0.00
2023-01-10T01:40:34.120Z,0.00
2023-01-10T01:41:34.129Z,0.00
2023-01-10T01:42:34.121Z,0.00
2023-01-10T01:43:34.100Z,0.00
2023-01-10T01:44:34.108Z,0.00
2023-01-10T01:45:34.102Z,0.00
2023-01-10T01:46:34.163Z,0.00
2023-01-10T01:47:34.084Z,0.00
2023-01-10T01:48:34.105Z,0.00
2023-01-10T01:49:34.077Z,0.00
2023-01-10T01:50:34.072Z,0.00
2023-01-10T01:51:34.062Z,0.00
2023-01-10T01:52:34.064Z,0.00
2023-01-10T01:53:34.054Z,0.00
2023-01-10T01:54:34.056Z,0.00
2023-01-10T01:55:34.046Z,0.00
2023-01-10T01:56:34.041Z,0.00
2023-01-10T01:57:34.053Z,0.00
2023-01-10T01:58:34.031Z,0.00
2023-01-10T01:59:34.023Z,0.00
2023-01-10T02:00:34.020Z,0.00
2023-01-10T02:01:34.138Z,0.00
2023-01-10T02:02:34.054Z,0.00
2023-01-10T02:03:34.001Z,0.00
2023-01-10T02:04:34.000Z,0.00
2023-01-10T02:05:33.995Z,0.00
2023-01-10T02:06:33.989Z,0.00
2023-01-10T02:07:34.006Z,0.00
2023-01-10T02:08:33.981Z,0.00
2023-01-10T02:09:33.977Z,0.00
2023-01-10T02:10:33.971Z,0.00
2023-01-10T02:11:33.966Z,0.00
2023-01-10T02:12:33.974Z,0.00
2023-01-10T02:13:33.972Z,0.00
2023-01-10T02:14:33.955Z,0.00
2023-01-10T02:15:33.945Z,0.00
2023-01-10T02:16:33.946Z,0.00
2023-01-10T02:17:33.938Z,0.00
2023-01-10T02:18:33.931Z,0.00
2023-01-10T02:19:33.924Z,0.00
2023-01-10T02:20:33.939Z,0.00
2023-01-10T02:21:33.916Z,0.00
2023-01-10T02:22:33.912Z,0.00
2023-01-10T02:23:33.908Z,0.00
2023-01-10T02:24:33.903Z,0.00
2023-01-10T02:25:33.898Z,0.00
2023-01-10T02:26:33.893Z,0.00
2023-01-10T02:27:33.887Z,0.00
2023-01-10T02:28:33.883Z,0.00
2023-01-10T02:29:33.896Z,0.00
2023-01-10T02:30:33.871Z,0.00
2023-01-10T02:31:34.001Z,0.00
2023-01-10T02:32:43.956Z,0.00
2023-01-10T02:33:33.869Z,0.00
2023-01-10T02:34:33.853Z,0.00
2023-01-10T02:35:33.845Z,0.00
2023-01-10T02:36:33.843Z,0.00
2023-01-10T02:37:33.839Z,0.00
2023-01-10T02:38:33.833Z,0.00
2023-01-10T02:39:33.830Z,0.00
2023-01-10T02:40:33.822Z,0.00
2023-01-10T02:41:33.815Z,0.00
2023-01-10T02:42:33.814Z,0.00
2023-01-10T02:43:33.816Z,0.00
2023-01-10T02:44:33.803Z,0.00
2023-01-10T02:45:33.814Z,0.00
2023-01-10T02:46:33.829Z,0.00
2023-01-10T02:47:33.785Z,0.00
2023-01-10T02:48:33.785Z,0.00
2023-01-10T02:49:33.777Z,0.00
2023-01-10T02:50:33.772Z,0.00
2023-01-10T02:51:33.772Z,0.00
2023-01-10T02:52:33.764Z,0.00
2023-01-10T02:53:33.755Z,0.00
2023-01-10T02:54:33.757Z,0.00
2023-01-10T02:55:33.756Z,0.00
2023-01-10T02:56:33.749Z,0.00
2023-01-10T02:57:33.739Z,0.00
2023-01-10T02:58:33.741Z,0.00
2023-01-10T02:59:33.877Z,0.00
2023-01-10T03:00:33.728Z,0.00
2023-01-10T03:01:33.815Z,0.00
2023-01-10T03:02:33.717Z,0.00
2023-01-10T03:03:33.708Z,0.00
2023-01-10T03:04:33.724Z,0.00
2023-01-10T03:05:33.699Z,0.00
2023-01-10T03:06:33.703Z,0.00
2023-01-10T03:07:33.689Z,0.00
2023-01-10T03:08:33.689Z,0.00
2023-01-10T03:09:34.497Z,0.00
2023-01-10T03:10:33.674Z,0.00
2023-01-10T03:11:33.668Z,0.00
2023-01-10T03:12:33.667Z,0.00
2023-01-10T03:13:33.664Z,0.00
2023-01-10T03:14:33.653Z,0.00
2023-01-10T03:15:33.646Z,0.00
2023-01-10T03:16:33.641Z,0.00
2023-01-10T03:17:33.656Z,0.00
2023-01-10T03:18:33.643Z,0.00
2023-01-10T03:19:33.636Z,0.00
2023-01-10T03:20:33.622Z,0.00
2023-01-10T03:21:33.631Z,0.00
2023-01-10T03:22:33.611Z,0.00
2023-01-10T03:23:33.610Z,0.00
2023-01-10T03:24:33.609Z,0.00
2023-01-10T03:25:33.598Z,0.00
2023-01-10T03:26:33.594Z,0.00
2023-01-10T03:27:33.589Z,0.00
2023-01-10T03:28:33.583Z,0.00
2023-01-10T03:29:33.578Z,0.00
2023-01-10T03:30:33.583Z,0.00
2023-01-10T03:31:33.624Z,0.00
2023-01-10T03:32:33.569Z,0.00
2023-01-10T03:33:33.595Z,0.00
2023-01-10T03:34:33.550Z,0.00
2023-01-10T03:35:33.567Z,0.00
2023-01-10T03:36:33.544Z,0.00
2023-01-10T03:37:33.538Z,0.00
2023-01-10T03:38:33.532Z,0.00
2023-01-10T03:39:33.538Z,0.00
2023-01-10T03:40:33.523Z,0.00
2023-01-10T03:41:33.523Z,0.00
2023-01-10T03:42:33.521Z,0.00
2023-01-10T03:43:33.508Z,0.00
2023-01-10T03:44:33.505Z,0.00
2023-01-10T03:45:33.499Z,0.00
2023-01-10T03:46:33.523Z,0.00
2023-01-10T03:47:33.491Z,0.00
2023-01-10T03:48:33.490Z,0.00
2023-01-10T03:49:33.501Z,0.00
2023-01-10T03:50:33.471Z,0.00
2023-01-10T03:51:33.471Z,0.00
2023-01-10T03:52:33.463Z,0.00
2023-01-10T03:53:33.461Z,0.00
2023-01-10T03:54:33.458Z,0.00
2023-01-10T03:55:33.450Z,0.00
2023-01-10T03:56:33.442Z,0.00
2023-01-10T03:57:33.445Z,0.00
2023-01-10T03:58:33.449Z,0.00
2023-01-10T03:59:33.787Z,0.00
2023-01-10T04:00:33.430Z,0.00
2023-01-10T04:01:33.560Z,0.00
2023-01-10T04:02:33.414Z,0.00
2023-01-10T04:03:33.414Z,0.00
2023-01-10T04:04:33.408Z,0.00
2023-01-10T04:05:33.421Z,0.00
2023-01-10T04:06:33.396Z,0.00
2023-01-10T04:07:33.397Z,0.00
2023-01-10T04:08:33.394Z,0.00
2023-01-10T04:09:33.381Z,0.00
2023-01-10T04:10:33.376Z,0.00
2023-01-10T04:11:33.377Z,0.00
2023-01-10T04:12:33.370Z,0.00
2023-01-10T04:13:33.359Z,0.00
2023-01-10T04:14:33.357Z,0.00
2023-01-10T04:15:33.352Z,0.00
2023-01-10T04:16:33.384Z,0.00
2023-01-10T04:17:33.338Z,0.00
2023-01-10T04:18:33.337Z,0.00
2023-01-10T04:19:33.329Z,0.00
2023-01-10T04:20:33.325Z,0.00
2023-01-10T04:21:33.342Z,0.00
2023-01-10T04:22:33.315Z,0.00
2023-01-10T04:23:33.308Z,0.00
2023-01-10T04:24:33.306Z,0.00
2023-01-10T04:25:33.301Z,0.00
2023-01-10T04:26:33.296Z,0.00
2023-01-10T04:27:33.309Z,0.00
2023-01-10T04:28:33.283Z,0.00
2023-01-10T04:29:33.284Z,0.00
2023-01-10T04:30:33.272Z,0.00
2023-01-10T04:31:33.315Z,0.00
2023-01-10T04:32:33.271Z,0.00
2023-01-10T04:33:33.268Z,0.00
2023-01-10T04:34:33.262Z,0.00
2023-01-10T04:35:33.248Z,0.00
2023-01-10T04:36:33.248Z,0.00
2023-01-10T04:37:33.260Z,0.00
2023-01-10T04:38:33.232Z,0.00
2023-01-10T04:39:33.235Z,0.00
2023-01-10T04:40:33.237Z,0.00
2023-01-10T04:41:33.220Z,0.00
2023-01-10T04:42:33.216Z,0.00
2023-01-10T04:43:33.229Z,0.00
2023-01-10T04:44:33.203Z,0.00
2023-01-10T04:45:33.246Z,0.00
2023-01-10T04:46:33.193Z,0.00
2023-01-10T04:47:33.201Z,0.00
2023-01-10T04:48:33.190Z,0.00
2023-01-10T04:49:33.179Z,0.00
2023-01-10T04:50:33.171Z,0.00
2023-01-10T04:51:33.176Z,0.00
2023-01-10T04:52:33.169Z,0.00
2023-01-10T04:53:33.206Z,0.00
2023-01-10T04:54:33.160Z,0.00
2023-01-10T04:55:33.151Z,0.00
2023-01-10T04:56:33.150Z,0.00
2023-01-10T04:57:33.144Z,0.00
2023-01-10T04:58:33.132Z,0.00
2023-01-10T04:59:33.489Z,0.00
2023-01-10T05:00:33.128Z,0.00
2023-01-10T05:01:33.149Z,0.00
2023-01-10T05:02:33.285Z,0.00
2023-01-10T05:03:33.109Z,0.00
2023-01-10T05:04:33.104Z,0.00
2023-01-10T05:05:33.099Z,0.00
2023-01-10T05:06:33.087Z,0.00
2023-01-10T05:07:33.089Z,0.00
2023-01-10T05:08:33.088Z,0.00
2023-01-10T05:09:33.091Z,0.00
2023-01-10T05:10:33.081Z,0.00
2023-01-10T05:11:33.072Z,0.00
2023-01-10T05:12:33.063Z,0.00
2023-01-10T05:13:33.056Z,0.00
2023-01-10T05:14:33.055Z,0.00
2023-01-10T05:15:33.049Z,0.00
2023-01-10T05:16:33.083Z,0.00
2023-01-10T05:17:33.044Z,0.00
2023-01-10T05:18:33.032Z,0.00
2023-01-10T05:19:33.029Z,0.00
2023-01-10T05:20:33.025Z,0.00
2023-01-10T05:21:33.015Z,0.00
2023-01-10T05:22:33.012Z,0.00
2023-01-10T05:23:33.015Z,0.00
2023-01-10T05:24:33.001Z,0.00
2023-01-10T05:25:33.021Z,0.00
2023-01-10T05:26:32.991Z,0.00
2023-01-10T05:27:33.014Z,0.00
2023-01-10T05:28:32.986Z,0.00
2023-01-10T05:29:32.975Z,0.00
2023-01-10T05:30:32.969Z,0.00
2023-01-10T05:31:32.971Z,0.00
2023-01-10T05:32:32.958Z,0.00
2023-01-10T05:33:32.966Z,0.00
2023-01-10T05:34:32.955Z,0.00
2023-01-10T05:35:33.016Z,0.00
2023-01-10T05:36:32.939Z,0.00
2023-01-10T05:37:32.936Z,0.00
2023-01-10T05:38:32.942Z,0.00
2023-01-10T05:39:32.928Z,0.00
2023-01-10T05:40:32.921Z,0.00
2023-01-10T05:41:32.934Z,0.00
2023-01-10T05:42:32.923Z,0.00
2023-01-10T05:43:32.910Z,0.00
2023-01-10T05:44:32.903Z,0.00
2023-01-10T05:45:32.999Z,0.00
2023-01-10T05:46:32.897Z,0.00
2023-01-10T05:47:32.889Z,0.00
2023-01-10T05:48:32.881Z,0.00
2023-01-10T05:49:34.200Z,0.00
2023-01-10T05:50:32.877Z,0.00
2023-01-10T05:51:32.867Z,0.00
2023-01-10T05:52:32.860Z,0.00
2023-01-10T05:53:32.885Z,0.00
2023-01-10T05:54:32.857Z,0.00
2023-01-10T05:55:32.851Z,0.00
2023-01-10T05:56:32.843Z,0.00
2023-01-10T05:57:32.856Z,0.00
2023-01-10T05:58:32.829Z,0.00
2023-01-10T05:59:32.829Z,0.00
2023-01-10T06:00:33.326Z,0.00
2023-01-10T06:01:32.940Z,0.00
2023-01-10T06:02:32.982Z,0.00
2023-01-10T06:03:32.883Z,0.00
2023-01-10T06:04:32.815Z,0.00
2023-01-10T06:05:32.806Z,0.00
2023-01-10T06:06:32.790Z,0.00
2023-01-10T06:07:32.803Z,0.00
2023-01-10T06:08:32.935Z,0.00
2023-01-10T06:09:32.813Z,0.00
2023-01-10T06:10:32.769Z,0.00
2023-01-10T06:11:32.780Z,0.00
2023-01-10T06:12:32.762Z,0.00
2023-01-10T06:13:32.776Z,0.00
2023-01-10T06:14:32.770Z,0.00
2023-01-10T06:15:32.753Z,0.00
2023-01-10T06:16:32.745Z,0.00
2023-01-10T06:17:32.740Z,0.00
2023-01-10T06:18:32.732Z,0.00
2023-01-10T06:19:32.749Z,0.00
2023-01-10T06:20:32.728Z,0.00
2023-01-10T06:21:32.729Z,0.00
2023-01-10T06:22:32.714Z,0.00
2023-01-10T06:23:32.708Z,0.00
2023-01-10T06:24:32.703Z,0.00
2023-01-10T06:25:32.704Z,0.00
2023-01-10T06:26:32.691Z,0.00
2023-01-10T06:27:32.694Z,0.00
2023-01-10T06:28:32.683Z,0.00
2023-01-10T06:29:32.706Z,0.00
2023-01-10T06:30:32.671Z,0.00
2023-01-10T06:31:32.760Z,0.00
2023-01-10T06:32:32.662Z,0.00
2023-01-10T06:33:32.687Z,0.00
2023-01-10T06:34:32.651Z,0.00
2023-01-10T06:35:32.648Z,0.00
2023-01-10T06:36:32.640Z,0.00
2023-01-10T06:37:32.639Z,0.00
2023-01-10T06:38:32.631Z,0.00
2023-01-10T06:39:32.638Z,0.00
2023-01-10T06:40:32.625Z,0.00
2023-01-10T06:41:32.614Z,0.00
2023-01-10T06:42:32.608Z,0.00
2023-01-10T06:43:32.609Z,0.00
2023-01-10T06:44:32.602Z,0.00
2023-01-10T06:45:32.634Z,0.00
2023-01-10T06:46:32.600Z,0.00
2023-01-10T06:47:32.591Z,0.00
2023-01-10T06:48:32.582Z,0.00
2023-01-10T06:49:32.578Z,0.00
2023-01-10T06:50:32.567Z,0.00
2023-01-10T06:51:32.562Z,0.00
2023-01-10T06:52:32.558Z,0.00
2023-01-10T06:53:32.561Z,0.00
2023-01-10T06:54:32.547Z,0.00
2023-01-10T06:55:32.550Z,0.00
2023-01-10T06:56:32.539Z,0.00
2023-01-10T06:57:32.533Z,0.00
2023-01-10T06:58:32.527Z,0.00
2023-01-10T06:59:32.551Z,0.00
2023-01-10T07:00:32.517Z,0.00
2023-01-10T07:01:32.724Z,0.00
2023-01-10T07:02:32.508Z,0.00
2023-01-10T07:03:32.568Z,0.00
2023-01-10T07:04:32.499Z,0.00
2023-01-10T07:05:32.850Z,0.00
2023-01-10T07:06:32.501Z,0.00
2023-01-10T07:07:32.487Z,0.00
2023-01-10T07:08:32.485Z,0.00
2023-01-10T07:09:32.479Z,0.00
2023-01-10T07:10:32.476Z,0.00
2023-01-10T07:11:32.464Z,0.00
2023-01-10T07:12:32.464Z,0.00
2023-01-10T07:13:32.458Z,0.00
2023-01-10T07:14:32.453Z,4.00
2023-01-10T07:15:32.451Z,0.00
2023-01-10T07:16:32.451Z,0.00
2023-01-10T07:17:32.474Z,4.00
2023-01-10T07:18:32.430Z,4.00
2023-01-10T07:19:32.426Z,0.00
2023-01-10T07:20:32.417Z,4.00
2023-01-10T07:21:32.413Z,4.00
2023-01-10T07:22:32.410Z,0.00
2023-01-10T07:23:32.417Z,4.00
2023-01-10T07:24:32.402Z,4.00
2023-01-10T07:25:32.408Z,4.00
2023-01-10T07:26:32.398Z,8.00
2023-01-10T07:27:32.473Z,8.00
2023-01-10T07:28:32.383Z,8.00
2023-01-10T07:29:32.375Z,4.00
2023-01-10T07:30:32.370Z,4.00
2023-01-10T07:31:32.433Z,4.00
2023-01-10T07:32:32.360Z,4.00
2023-01-10T07:33:32.372Z,4.00
2023-01-10T07:34:32.362Z,4.00
2023-01-10T07:35:32.344Z,8.00
2023-01-10T07:36:32.346Z,12.00
2023-01-10T07:37:32.336Z,8.00
2023-01-10T07:38:32.335Z,12.00
2023-01-10T07:39:32.325Z,16.00
2023-01-10T07:40:32.335Z,12.00
2023-01-10T07:41:32.315Z,16.00
2023-01-10T07:42:32.316Z,16.00
2023-01-10T07:43:32.310Z,20.00
2023-01-10T07:44:32.308Z,24.00
2023-01-10T07:45:32.296Z,24.00
2023-01-10T07:46:32.341Z,28.00
2023-01-10T07:47:32.287Z,32.00
2023-01-10T07:48:32.286Z,36.00
2023-01-10T07:49:32.292Z,36.00
2023-01-10T07:50:32.274Z,40.00
2023-01-10T07:51:32.275Z,36.00
2023-01-10T07:52:32.261Z,40.00
2023-01-10T07:53:32.266Z,40.00
2023-01-10T07:54:32.262Z,48.00
2023-01-10T07:55:32.246Z,60.00
2023-01-10T07:56:32.256Z,60.00
2023-01-10T07:57:32.234Z,56.00
2023-01-10T07:58:32.230Z,48.00
2023-01-10T07:59:32.226Z,48.00
2023-01-10T08:00:32.225Z,56.00
2023-01-10T08:01:32.248Z,56.00
2023-01-10T08:02:32.346Z,60.00
2023-01-10T08:03:32.410Z,68.00
2023-01-10T08:04:32.203Z,72.00
2023-01-10T08:05:32.425Z,80.00
2023-01-10T08:06:32.191Z,96.00
2023-01-10T08:07:32.192Z,92.00
2023-01-10T08:08:32.183Z,96.00
2023-01-10T08:09:32.186Z,96.00
2023-01-10T08:10:32.173Z,96.00
2023-01-10T08:11:32.165Z,100.00
2023-01-10T08:12:32.165Z,112.00
2023-01-10T08:13:32.156Z,124.00
2023-01-10T08:14:32.223Z,132.00
2023-01-10T08:15:32.157Z,136.00
2023-01-10T08:16:32.162Z,152.00
2023-01-10T08:17:32.136Z,140.00
2023-01-10T08:18:32.140Z,120.00
2023-01-10T08:19:32.139Z,132.00
2023-01-10T08:20:32.125Z,152.00
2023-01-10T08:21:32.132Z,168.00
2023-01-10T08:22:32.114Z,172.00
2023-01-10T08:23:32.118Z,184.00
2023-01-10T08:24:32.115Z,168.00
2023-01-10T08:25:32.116Z,172.00
2023-01-10T08:26:32.094Z,168.00
2023-01-10T08:27:32.090Z,188.00
2023-01-10T08:28:32.085Z,200.00
2023-01-10T08:29:32.088Z,200.00
2023-01-10T08:30:32.081Z,196.00
2023-01-10T08:31:32.123Z,196.00
2023-01-10T08:32:32.070Z,184.00
2023-01-10T08:33:32.057Z,180.00
2023-01-10T08:34:32.058Z,172.00
2023-01-10T08:35:32.053Z,164.00
2023-01-10T08:36:32.063Z,172.00
2023-01-10T08:37:32.190Z,180.00
2023-01-10T08:38:32.054Z,204.00
2023-01-10T08:39:32.023Z,196.00
2023-01-10T08:40:32.037Z,168.00
2023-01-10T08:41:32.052Z,192.00
2023-01-10T08:42:32.017Z,204.00
2023-01-10T08:43:32.014Z,200.00
2023-01-10T08:44:32.016Z,172.00
2023-01-10T08:45:32.002Z,180.00
2023-01-10T08:46:32.049Z,220.00
2023-01-10T08:47:31.989Z,244.00
2023-01-10T08:48:32.004Z,216.00
2023-01-10T08:49:31.976Z,220.00
2023-01-10T08:50:31.970Z,240.00
2023-01-10T08:51:31.968Z,284.00
2023-01-10T08:52:31.963Z,264.00
2023-01-10T08:53:31.972Z,260.00
2023-01-10T08:54:31.957Z,256.00
2023-01-10T08:55:32.044Z,300.00
2023-01-10T08:56:31.948Z,368.00
2023-01-10T08:57:31.949Z,372.00
2023-01-10T08:58:31.931Z,356.00
2023-01-10T08:59:31.927Z,360.00
2023-01-10T09:00:31.919Z,376.00
2023-01-10T09:01:32.077Z,380.00
2023-01-10T09:02:32.018Z,396.00
2023-01-10T09:03:31.910Z,444.00
2023-01-10T09:04:33.074Z,484.00
2023-01-10T09:05:31.970Z,440.00
2023-01-10T09:06:31.890Z,364.00
2023-01-10T09:07:31.887Z,308.00
2023-01-10T09:08:31.890Z,292.00
2023-01-10T09:09:31.906Z,284.00
2023-01-10T09:10:32.123Z,284.00
2023-01-10T09:11:31.897Z,276.00
2023-01-10T09:12:31.861Z,280.00
2023-01-10T09:13:31.853Z,284.00
2023-01-10T09:14:31.851Z,284.00
2023-01-10T09:15:31.844Z,276.00
2023-01-10T09:16:31.841Z,280.00
2023-01-10T09:17:31.834Z,276.00
2023-01-10T09:18:31.857Z,284.00
2023-01-10T09:19:31.824Z,324.00
2023-01-10T09:20:31.820Z,368.00
2023-01-10T09:21:31.812Z,364.00
2023-01-10T09:22:31.809Z,324.00
2023-01-10T09:23:31.803Z,308.00
2023-01-10T09:24:31.800Z,316.00
2023-01-10T09:25:31.819Z,312.00
2023-01-10T09:26:31.787Z,320.00
2023-01-10T09:27:31.787Z,328.00
2023-01-10T09:28:31.779Z,328.00
2023-01-10T09:29:31.771Z,340.00
2023-01-10T09:30:31.770Z,340.00
2023-01-10T09:31:31.796Z,336.00
2023-01-10T09:32:31.758Z,340.00
2023-01-10T09:33:45.266Z,344.00
2023-01-10T09:34:31.754Z,348.00
2023-01-10T09:35:31.753Z,360.00
2023-01-10T09:36:31.748Z,364.00
2023-01-10T09:37:31.740Z,372.00
2023-01-10T09:38:31.730Z,372.00
2023-01-10T09:39:31.724Z,372.00
2023-01-10T09:40:31.727Z,380.00
2023-01-10T09:41:31.730Z,384.00
2023-01-10T09:42:31.711Z,384.00
2023-01-10T09:43:31.702Z,384.00
2023-01-10T09:44:31.707Z,376.00
2023-01-10T09:45:31.694Z,376.00
2023-01-10T09:46:31.718Z,380.00
2023-01-10T09:47:31.681Z,380.00
2023-01-10T09:48:31.678Z,380.00
2023-01-10T09:49:31.673Z,376.00
2023-01-10T09:50:31.677Z,380.00
2023-01-10T09:51:31.674Z,380.00
2023-01-10T09:52:31.659Z,376.00
2023-01-10T09:53:31.651Z,376.00
2023-01-10T09:54:31.661Z,368.00
2023-01-10T09:55:32.476Z,364.00
2023-01-10T09:56:31.637Z,364.00
2023-01-10T09:57:31.647Z,364.00
2023-01-10T09:58:31.640Z,368.00
2023-01-10T09:59:31.626Z,368.00
2023-01-10T10:00:31.621Z,364.00
2023-01-10T10:01:31.639Z,360.00
2023-01-10T10:02:31.614Z,364.00
2023-01-10T10:03:31.625Z,348.00
2023-01-10T10:04:31.617Z,384.00
2023-01-10T10:05:31.593Z,360.00
2023-01-10T10:06:31.595Z,348.00
2023-01-10T10:07:31.584Z,348.00
2023-01-10T10:08:31.583Z,356.00
2023-01-10T10:09:31.575Z,356.00
2023-01-10T10:10:31.582Z,356.00
2023-01-10T10:11:31.560Z,360.00
2023-01-10T10:12:31.569Z,372.00
2023-01-10T10:13:31.574Z,376.00
2023-01-10T10:14:31.558Z,368.00
2023-01-10T10:15:31.942Z,376.00
2023-01-10T10:16:31.614Z,420.00
2023-01-10T10:17:31.535Z,380.00
2023-01-10T10:18:31.531Z,380.00
2023-01-10T10:19:31.523Z,368.00
2023-01-10T10:20:31.533Z,372.00
2023-01-10T10:21:31.510Z,372.00
2023-01-10T10:22:31.510Z,376.00
2023-01-10T10:23:34.011Z,392.00
2023-01-10T10:24:31.504Z,384.00
2023-01-10T10:25:31.499Z,396.00
2023-01-10T10:26:31.505Z,408.00
2023-01-10T10:27:31.484Z,392.00
2023-01-10T10:28:31.485Z,404.00
2023-01-10T10:29:31.490Z,404.00
2023-01-10T10:30:31.474Z,408.00
2023-01-10T10:31:31.629Z,412.00
2023-01-10T10:32:31.459Z,416.00
2023-01-10T10:33:31.455Z,412.00
2023-01-10T10:34:31.450Z,412.00
2023-01-10T10:35:31.448Z,408.00
2023-01-10T10:36:31.447Z,408.00
2023-01-10T10:37:31.446Z,412.00
2023-01-10T10:38:31.437Z,412.00
2023-01-10T10:39:31.425Z,408.00
2023-01-10T10:40:31.425Z,404.00
2023-01-10T10:41:31.416Z,404.00
2023-01-10T10:42:31.413Z,404.00
2023-01-10T10:43:31.405Z,412.00
2023-01-10T10:44:31.418Z,420.00
2023-01-10T10:45:31.499Z,424.00
2023-01-10T10:46:31.394Z,424.00
2023-01-10T10:47:31.415Z,428.00
2023-01-10T10:48:31.394Z,428.00
2023-01-10T10:49:31.375Z,428.00
2023-01-10T10:50:31.372Z,424.00
2023-01-10T10:51:31.365Z,420.00
2023-01-10T10:52:31.366Z,416.00
2023-01-10T10:53:31.359Z,412.00
2023-01-10T10:54:31.360Z,408.00
2023-01-10T10:55:31.349Z,404.00
2023-01-10T10:56:31.352Z,400.00
2023-01-10T10:57:31.337Z,388.00
2023-01-10T10:58:31.334Z,392.00
2023-01-10T10:59:31.342Z,396.00
2023-01-10T11:00:31.344Z,392.00
2023-01-10T11:01:31.416Z,392.00
2023-01-10T11:02:31.330Z,388.00
2023-01-10T11:03:31.319Z,384.00
2023-01-10T11:04:31.338Z,384.00
2023-01-10T11:05:31.323Z,380.00
2023-01-10T11:06:33.894Z,384.00
2023-01-10T11:07:31.298Z,384.00
2023-01-10T11:08:31.300Z,384.00
2023-01-10T11:09:31.280Z,392.00
2023-01-10T11:10:31.300Z,392.00
2023-01-10T11:11:31.270Z,392.00
2023-01-10T11:12:31.266Z,396.00
2023-01-10T11:13:31.265Z,392.00
2023-01-10T11:14:31.260Z,392.00
2023-01-10T11:15:31.469Z,388.00
2023-01-10T11:16:31.394Z,392.00
2023-01-10T11:17:31.266Z,388.00
2023-01-10T11:18:31.238Z,392.00
2023-01-10T11:19:31.232Z,388.00
2023-01-10T11:20:31.233Z,384.00
2023-01-10T11:21:31.236Z,388.00
2023-01-10T11:22:31.219Z,384.00
2023-01-10T11:23:31.221Z,372.00
2023-01-10T11:24:31.219Z,352.00
2023-01-10T11:25:31.201Z,348.00
2023-01-10T11:26:31.212Z,340.00
2023-01-10T11:27:31.197Z,332.00
2023-01-10T11:28:31.192Z,344.00
2023-01-10T11:29:31.187Z,336.00
2023-01-10T11:30:31.184Z,344.00
2023-01-10T11:31:31.236Z,332.00
2023-01-10T11:32:31.175Z,324.00
2023-01-10T11:33:31.185Z,324.00
2023-01-10T11:34:31.168Z,328.00
2023-01-10T11:35:31.156Z,340.00
2023-01-10T11:36:31.157Z,348.00
2023-01-10T11:37:31.146Z,344.00
2023-01-10T11:38:31.159Z,344.00
2023-01-10T11:39:31.141Z,348.00
2023-01-10T11:40:31.138Z,352.00
2023-01-10T11:41:31.129Z,356.00
2023-01-10T11:42:31.124Z,360.00
2023-01-10T11:43:31.127Z,360.00
2023-01-10T11:44:31.131Z,364.00
2023-01-10T11:45:31.229Z,368.00
2023-01-10T11:46:31.106Z,360.00
2023-01-10T11:47:32.361Z,364.00
2023-01-10T11:48:59.699Z,360.00
2023-01-10T11:49:31.124Z,356.00
2023-01-10T11:50:31.089Z,356.00
2023-01-10T11:51:31.084Z,356.00
2023-01-10T11:52:31.075Z,352.00
2023-01-10T11:53:31.079Z,352.00
2023-01-10T11:54:31.067Z,352.00
2023-01-10T11:55:31.062Z,348.00
2023-01-10T11:56:31.057Z,348.00
2023-01-10T11:57:31.061Z,344.00
2023-01-10T11:58:31.049Z,340.00
2023-01-10T11:59:31.061Z,336.00
2023-01-10T12:00:31.040Z,332.00
2023-01-10T12:01:31.080Z,324.00
2023-01-10T12:02:31.077Z,316.00
2023-01-10T12:03:31.032Z,312.00
2023-01-10T12:04:31.020Z,300.00
2023-01-10T12:05:31.065Z,292.00
2023-01-10T12:06:31.015Z,292.00
2023-01-10T12:07:31.010Z,288.00
2023-01-10T12:08:31.015Z,284.00
2023-01-10T12:09:31.004Z,288.00
2023-01-10T12:10:30.993Z,288.00
2023-01-10T12:11:31.003Z,288.00
2023-01-10T12:12:30.989Z,288.00
2023-01-10T12:13:30.981Z,284.00
2023-01-10T12:14:30.979Z,288.00
2023-01-10T12:15:30.989Z,284.00
2023-01-10T12:16:31.057Z,276.00
2023-01-10T12:17:30.967Z,276.00
2023-01-10T12:18:30.969Z,276.00
2023-01-10T12:19:30.952Z,280.00
2023-01-10T12:20:30.968Z,280.00
2023-01-10T12:21:30.961Z,276.00
2023-01-10T12:22:30.952Z,272.00
2023-01-10T12:23:30.935Z,280.00
2023-01-10T12:24:30.929Z,280.00
2023-01-10T12:25:30.920Z,284.00
2023-01-10T12:26:30.918Z,280.00
2023-01-10T12:27:30.919Z,276.00
2023-01-10T12:28:30.905Z,276.00
2023-01-10T12:29:30.909Z,276.00
2023-01-10T12:30:30.996Z,276.00
2023-01-10T12:31:30.896Z,276.00
2023-01-10T12:32:30.888Z,280.00
2023-01-10T12:33:30.885Z,280.00
2023-01-10T12:34:30.880Z,284.00
2023-01-10T12:35:30.886Z,284.00
2023-01-10T12:36:30.874Z,284.00
2023-01-10T12:37:30.904Z,284.00
2023-01-10T12:38:30.865Z,284.00
2023-01-10T12:39:30.856Z,280.00
2023-01-10T12:40:30.871Z,280.00
2023-01-10T12:41:30.848Z,276.00
2023-01-10T12:42:30.844Z,272.00
2023-01-10T12:43:30.840Z,272.00
2023-01-10T12:44:30.836Z,264.00
2023-01-10T12:45:30.838Z,268.00
2023-01-10T12:47:00.498Z,268.00
2023-01-10T12:47:30.891Z,264.00
2023-01-10T12:48:30.819Z,268.00
2023-01-10T12:49:30.814Z,268.00
2023-01-10T12:50:30.807Z,272.00
2023-01-10T12:51:30.805Z,272.00
2023-01-10T12:52:30.799Z,272.00
2023-01-10T12:53:30.828Z,268.00
2023-01-10T12:54:30.790Z,268.00
2023-01-10T12:55:30.788Z,260.00
2023-01-10T12:56:30.777Z,264.00
2023-01-10T12:57:30.778Z,260.00
2023-01-10T12:58:30.767Z,252.00